If you wish to contribute or participate in the discussions about articles you are invited to join SKYbrary as a registered user

LTBS

From SKYbrary Wiki
Airport
ICAO: LTBS – IATA: DLM
Summary
Name Dalaman Airport
Region Europe
Territory Turkey TR.gif
Location Dalaman
Main city served Dalaman
Elevation 6.096 m
20 ft
20 ft6.096 m
Coordinates 36° 42' 45", 28° 47' 29.0004"
More airports
in LT
LTAC, LTAG, LTAI, LTAJ, LTAK, LTAN, LTBA, LTBJ, LTBR, LTBS, LTBY, LTBZ, LTCE, LTCG, LTCI, LTCS, LTCV, LTFH
Runways
Designator Length Width Surface
1/19 3000 m9,842.52 ft 45 m147.638 ft CON


METAR
Observation LTBS 220820Z 35010KT 9999 FEW030 15/03 Q1018 NOSIG
Station Dalaman
Date/Time 22 November 2014 08:20:00
Wind direction 350°
Wind speed 10 kts
Lowest cloud amount few clouds
Temperature 15°C
Dew point 3°C
Humidity 44%
QNH 1018 hPa
Weather condition n/a


RI
Tag(s) Runway Misidentification

Dalaman Airport

ICAO: LTBS IATA: DLM

Description

International airport serving south-west Turkey, located 3 nm5,556 m
5.556 km
18,228.346 ft
south of the town of Dalaman and with high ground to the north, east, and west.

Climatology

Typical Mediterranean climate with hot dry summers and mild, wet winters (Köppen climate classification Csa).

Maps

Terrain

Loading map...

Airport Layout

Loading map...


Accidents & Serious Incidents at or in vicinity of LTBS

None on SKYbrary